sensor_id;sensor_type;location;lat;lon;timestamp;temperature;humidity
28532;DHT22;15738;44.860;10.066;2023-02-04T00:02:04;6.00;99.90
28532;DHT22;15738;44.860;10.066;2023-02-04T00:04:49;6.00;99.90
28532;DHT22;15738;44.860;10.066;2023-02-04T00:07:35;6.00;99.90
28532;DHT22;15738;44.860;10.066;2023-02-04T00:10:21;6.00;99.90
28532;DHT22;15738;44.860;10.066;2023-02-04T00:13:06;5.80;99.90
28532;DHT22;15738;44.860;10.066;2023-02-04T00:15:52;5.80;99.90
28532;DHT22;15738;44.860;10.066;2023-02-04T00:18:38;5.70;99.90
28532;DHT22;15738;44.860;10.066;2023-02-04T00:21:24;5.50;99.90
28532;DHT22;15738;44.860;10.066;2023-02-04T00:24:09;5.50;99.90
28532;DHT22;15738;44.860;10.066;2023-02-04T00:26:55;5.50;99.90
28532;DHT22;15738;44.860;10.066;2023-02-04T00:29:41;5.50;99.90
28532;DHT22;15738;44.860;10.066;2023-02-04T00:32:26;5.50;99.90
28532;DHT22;15738;44.860;10.066;2023-02-04T00:35:12;5.50;99.90
28532;DHT22;15738;44.860;10.066;2023-02-04T00:37:58;5.40;99.90
28532;DHT22;15738;44.860;10.066;2023-02-04T00:40:44;5.40;99.90
28532;DHT22;15738;44.860;10.066;2023-02-04T00:43:30;5.40;99.90
28532;DHT22;15738;44.860;10.066;2023-02-04T00:46:15;5.40;99.90
28532;DHT22;15738;44.860;10.066;2023-02-04T00:49:00;5.30;99.90
28532;DHT22;15738;44.860;10.066;2023-02-04T00:51:46;5.20;99.90
28532;DHT22;15738;44.860;10.066;2023-02-04T00:54:32;5.20;99.90
28532;DHT22;15738;44.860;10.066;2023-02-04T00:57:18;5.20;99.90
28532;DHT22;15738;44.860;10.066;2023-02-04T01:00:04;5.10;99.90
28532;DHT22;15738;44.860;10.066;2023-02-04T01:02:50;5.10;99.90
28532;DHT22;15738;44.860;10.066;2023-02-04T01:05:36;5.10;99.90
28532;DHT22;15738;44.860;10.066;2023-02-04T01:08:22;5.20;99.90
28532;DHT22;15738;44.860;10.066;2023-02-04T01:11:08;5.20;99.90
28532;DHT22;15738;44.860;10.066;2023-02-04T01:13:53;5.20;99.90
28532;DHT22;15738;44.860;10.066;2023-02-04T01:16:39;5.20;99.90
28532;DHT22;15738;44.860;10.066;2023-02-04T01:19:24;5.10;99.90
28532;DHT22;15738;44.860;10.066;2023-02-04T01:22:11;5.10;99.90
28532;DHT22;15738;44.860;10.066;2023-02-04T01:24:56;5.20;99.90
28532;DHT22;15738;44.860;10.066;2023-02-04T01:28:00;5.10;99.90
28532;DHT22;15738;44.860;10.066;2023-02-04T01:30:48;5.10;99.90
28532;DHT22;15738;44.860;10.066;2023-02-04T01:33:34;5.10;99.90
28532;DHT22;15738;44.860;10.066;2023-02-04T01:36:19;5.10;99.90
28532;DHT22;15738;44.860;10.066;2023-02-04T01:39:05;5.00;99.90
28532;DHT22;15738;44.860;10.066;2023-02-04T01:41:51;5.10;99.90
28532;DHT22;15738;44.860;10.066;2023-02-04T01:44:37;5.10;99.90
28532;DHT22;15738;44.860;10.066;2023-02-04T01:47:24;5.10;99.90
28532;DHT22;15738;44.860;10.066;2023-02-04T01:50:11;5.20;99.90
28532;DHT22;15738;44.860;10.066;2023-02-04T01:52:57;5.20;99.90
28532;DHT22;15738;44.860;10.066;2023-02-04T01:55:43;5.20;99.90
28532;DHT22;15738;44.860;10.066;2023-02-04T01:58:29;5.20;99.90
28532;DHT22;15738;44.860;10.066;2023-02-04T02:01:33;5.20;99.90
28532;DHT22;15738;44.860;10.066;2023-02-04T02:04:29;5.20;99.90
28532;DHT22;15738;44.860;10.066;2023-02-04T02:07:17;5.20;99.90
28532;DHT22;15738;44.860;10.066;2023-02-04T02:10:04;5.20;99.90
28532;DHT22;15738;44.860;10.066;2023-02-04T02:12:50;5.20;99.90
28532;DHT22;15738;44.860;10.066;2023-02-04T02:15:36;5.30;99.90
28532;DHT22;15738;44.860;10.066;2023-02-04T02:18:23;5.30;99.90
28532;DHT22;15738;44.860;10.066;2023-02-04T02:21:09;5.30;99.90
28532;DHT22;15738;44.860;10.066;2023-02-04T02:23:56;5.30;99.90
28532;DHT22;15738;44.860;10.066;2023-02-04T02:26:42;5.30;99.90
28532;DHT22;15738;44.860;10.066;2023-02-04T02:29:28;5.30;99.90
28532;DHT22;15738;44.860;10.066;2023-02-04T02:32:14;5.30;99.90
28532;DHT22;15738;44.860;10.066;2023-02-04T02:34:59;5.30;99.90
28532;DHT22;15738;44.860;10.066;2023-02-04T02:37:45;5.20;99.90
28532;DHT22;15738;44.860;10.066;2023-02-04T02:40:31;5.30;99.90
28532;DHT22;15738;44.860;10.066;2023-02-04T02:43:20;5.30;99.90
28532;DHT22;15738;44.860;10.066;2023-02-04T02:46:07;5.30;99.90
28532;DHT22;15738;44.860;10.066;2023-02-04T02:48:53;5.30;99.90
28532;DHT22;15738;44.860;10.066;2023-02-04T02:51:38;5.40;99.90
28532;DHT22;15738;44.860;10.066;2023-02-04T02:54:28;5.40;99.90
28532;DHT22;15738;44.860;10.066;2023-02-04T02:57:20;5.40;99.90
28532;DHT22;15738;44.860;10.066;2023-02-04T03:00:17;5.50;99.90
28532;DHT22;15738;44.860;10.066;2023-02-04T03:05:50;5.50;99.90
28532;DHT22;15738;44.860;10.066;2023-02-04T03:08:38;5.50;99.90
28532;DHT22;15738;44.860;10.066;2023-02-04T03:11:24;5.50;99.90
28532;DHT22;15738;44.860;10.066;2023-02-04T03:14:14;5.50;99.90
28532;DHT22;15738;44.860;10.066;2023-02-04T03:16:59;5.50;99.90
28532;DHT22;15738;44.860;10.066;2023-02-04T03:19:47;5.50;99.90
28532;DHT22;15738;44.860;10.066;2023-02-04T03:22:33;5.60;99.90
28532;DHT22;15738;44.860;10.066;2023-02-04T03:25:19;5.60;99.90
28532;DHT22;15738;44.860;10.066;2023-02-04T03:28:09;5.60;99.90
28532;DHT22;15738;44.860;10.066;2023-02-04T03:30:54;5.60;99.90
28532;DHT22;15738;44.860;10.066;2023-02-04T03:33:40;5.60;99.90
28532;DHT22;15738;44.860;10.066;2023-02-04T03:36:26;5.70;99.90
28532;DHT22;15738;44.860;10.066;2023-02-04T03:39:12;5.70;99.90
28532;DHT22;15738;44.860;10.066;2023-02-04T03:41:57;5.70;99.90
28532;DHT22;15738;44.860;10.066;2023-02-04T03:44:43;5.60;99.90
28532;DHT22;15738;44.860;10.066;2023-02-04T03:47:28;5.70;99.90
28532;DHT22;15738;44.860;10.066;2023-02-04T03:50:14;5.70;99.90
28532;DHT22;15738;44.860;10.066;2023-02-04T03:52:59;5.80;99.90
28532;DHT22;15738;44.860;10.066;2023-02-04T03:55:45;5.80;99.90
28532;DHT22;15738;44.860;10.066;2023-02-04T03:58:31;5.70;99.90
28532;DHT22;15738;44.860;10.066;2023-02-04T04:01:16;5.70;99.90
28532;DHT22;15738;44.860;10.066;2023-02-04T04:04:02;5.70;99.90
28532;DHT22;15738;44.860;10.066;2023-02-04T04:06:47;5.70;99.90
28532;DHT22;15738;44.860;10.066;2023-02-04T04:09:33;5.70;99.90
28532;DHT22;15738;44.860;10.066;2023-02-04T04:12:19;5.70;99.90
28532;DHT22;15738;44.860;10.066;2023-02-04T04:15:04;5.70;99.90
28532;DHT22;15738;44.860;10.066;2023-02-04T04:17:50;5.70;99.90
28532;DHT22;15738;44.860;10.066;2023-02-04T04:20:35;5.70;99.90
28532;DHT22;15738;44.860;10.066;2023-02-04T04:23:21;5.60;99.90
28532;DHT22;15738;44.860;10.066;2023-02-04T04:26:07;5.50;99.90
28532;DHT22;15738;44.860;10.066;2023-02-04T04:28:52;5.50;99.90
28532;DHT22;15738;44.860;10.066;2023-02-04T04:31:38;5.50;99.90
28532;DHT22;15738;44.860;10.066;2023-02-04T04:34:23;5.40;99.90
28532;DHT22;15738;44.860;10.066;2023-02-04T04:37:09;5.20;99.90
28532;DHT22;15738;44.860;10.066;2023-02-04T04:39:55;5.30;99.90
28532;DHT22;15738;44.860;10.066;2023-02-04T04:42:40;5.30;99.90
28532;DHT22;15738;44.860;10.066;2023-02-04T04:45:26;5.30;99.90
28532;DHT22;15738;44.860;10.066;2023-02-04T04:48:11;5.30;99.90
28532;DHT22;15738;44.860;10.066;2023-02-04T04:50:57;5.30;99.90
28532;DHT22;15738;44.860;10.066;2023-02-04T04:53:42;5.20;99.90
28532;DHT22;15738;44.860;10.066;2023-02-04T04:56:28;5.20;99.90
28532;DHT22;15738;44.860;10.066;2023-02-04T04:59:14;5.20;99.90
28532;DHT22;15738;44.860;10.066;2023-02-04T05:02:00;5.20;99.90
28532;DHT22;15738;44.860;10.066;2023-02-04T05:04:45;5.30;99.90
28532;DHT22;15738;44.860;10.066;2023-02-04T05:07:31;5.20;99.90
28532;DHT22;15738;44.860;10.066;2023-02-04T05:10:17;5.10;99.90
28532;DHT22;15738;44.860;10.066;2023-02-04T05:13:03;5.10;99.90
28532;DHT22;15738;44.860;10.066;2023-02-04T05:15:48;5.10;99.90
28532;DHT22;15738;44.860;10.066;2023-02-04T05:18:34;5.10;99.90
28532;DHT22;15738;44.860;10.066;2023-02-04T05:21:20;5.00;99.90
28532;DHT22;15738;44.860;10.066;2023-02-04T05:24:06;5.00;99.90
28532;DHT22;15738;44.860;10.066;2023-02-04T05:26:51;5.00;99.90
28532;DHT22;15738;44.860;10.066;2023-02-04T05:29:37;5.00;99.90
28532;DHT22;15738;44.860;10.066;2023-02-04T05:32:22;5.10;99.90
28532;DHT22;15738;44.860;10.066;2023-02-04T05:35:08;5.10;99.90
28532;DHT22;15738;44.860;10.066;2023-02-04T05:37:54;5.00;99.90
28532;DHT22;15738;44.860;10.066;2023-02-04T05:40:39;5.00;99.90
28532;DHT22;15738;44.860;10.066;2023-02-04T05:43:25;5.00;99.90
28532;DHT22;15738;44.860;10.066;2023-02-04T05:46:11;5.10;99.90
28532;DHT22;15738;44.860;10.066;2023-02-04T05:48:57;5.00;99.90
28532;DHT22;15738;44.860;10.066;2023-02-04T05:51:43;5.00;99.90
28532;DHT22;15738;44.860;10.066;2023-02-04T05:54:28;4.90;99.90
28532;DHT22;15738;44.860;10.066;2023-02-04T05:57:14;4.90;99.90
28532;DHT22;15738;44.860;10.066;2023-02-04T05:59:59;4.90;99.90
28532;DHT22;15738;44.860;10.066;2023-02-04T06:02:45;4.90;99.90
28532;DHT22;15738;44.860;10.066;2023-02-04T06:05:30;4.80;99.90
28532;DHT22;15738;44.860;10.066;2023-02-04T06:08:16;4.70;99.90
28532;DHT22;15738;44.860;10.066;2023-02-04T06:11:01;4.80;99.90
28532;DHT22;15738;44.860;10.066;2023-02-04T06:13:47;4.80;99.90
28532;DHT22;15738;44.860;10.066;2023-02-04T06:16:33;4.80;99.90
28532;DHT22;15738;44.860;10.066;2023-02-04T06:19:19;4.80;99.90
28532;DHT22;15738;44.860;10.066;2023-02-04T06:22:05;4.80;99.90
28532;DHT22;15738;44.860;10.066;2023-02-04T06:24:50;4.80;99.90
28532;DHT22;15738;44.860;10.066;2023-02-04T06:27:36;4.80;99.90
28532;DHT22;15738;44.860;10.066;2023-02-04T06:30:21;4.70;99.90
28532;DHT22;15738;44.860;10.066;2023-02-04T06:33:09;4.70;99.90
28532;DHT22;15738;44.860;10.066;2023-02-04T06:35:54;4.60;99.90
28532;DHT22;15738;44.860;10.066;2023-02-04T06:38:40;4.70;99.90
28532;DHT22;15738;44.860;10.066;2023-02-04T06:41:25;4.60;99.90
28532;DHT22;15738;44.860;10.066;2023-02-04T06:44:11;4.60;99.90
28532;DHT22;15738;44.860;10.066;2023-02-04T06:46:57;4.60;99.90
28532;DHT22;15738;44.860;10.066;2023-02-04T06:49:43;4.50;99.90
28532;DHT22;15738;44.860;10.066;2023-02-04T06:52:28;4.60;99.90
28532;DHT22;15738;44.860;10.066;2023-02-04T06:55:14;4.60;99.90
28532;DHT22;15738;44.860;10.066;2023-02-04T06:57:59;4.70;99.90
28532;DHT22;15738;44.860;10.066;2023-02-04T07:00:45;4.70;99.90
28532;DHT22;15738;44.860;10.066;2023-02-04T07:03:31;4.70;99.90
28532;DHT22;15738;44.860;10.066;2023-02-04T07:06:16;4.70;99.90
28532;DHT22;15738;44.860;10.066;2023-02-04T07:09:02;4.80;99.90
28532;DHT22;15738;44.860;10.066;2023-02-04T07:11:48;5.00;99.90
28532;DHT22;15738;44.860;10.066;2023-02-04T07:14:33;5.30;99.90
28532;DHT22;15738;44.860;10.066;2023-02-04T07:17:19;5.30;99.90
28532;DHT22;15738;44.860;10.066;2023-02-04T07:20:05;5.30;99.90
28532;DHT22;15738;44.860;10.066;2023-02-04T07:22:50;5.30;99.90
28532;DHT22;15738;44.860;10.066;2023-02-04T07:25:36;5.40;99.90
28532;DHT22;15738;44.860;10.066;2023-02-04T07:28:22;5.50;99.90
28532;DHT22;15738;44.860;10.066;2023-02-04T07:31:08;5.40;99.90
28532;DHT22;15738;44.860;10.066;2023-02-04T07:33:54;5.40;99.90
28532;DHT22;15738;44.860;10.066;2023-02-04T07:36:40;5.40;99.90
28532;DHT22;15738;44.860;10.066;2023-02-04T07:39:25;5.40;99.90
28532;DHT22;15738;44.860;10.066;2023-02-04T07:42:12;5.50;99.90
28532;DHT22;15738;44.860;10.066;2023-02-04T07:45:03;5.90;99.90
28532;DHT22;15738;44.860;10.066;2023-02-04T07:47:48;6.30;99.90
28532;DHT22;15738;44.860;10.066;2023-02-04T07:50:34;6.70;99.90
28532;DHT22;15738;44.860;10.066;2023-02-04T07:53:20;7.20;99.90
28532;DHT22;15738;44.860;10.066;2023-02-04T07:56:06;7.70;99.90
28532;DHT22;15738;44.860;10.066;2023-02-04T07:58:51;8.00;99.90
28532;DHT22;15738;44.860;10.066;2023-02-04T08:01:37;8.20;99.90
28532;DHT22;15738;44.860;10.066;2023-02-04T08:04:23;8.50;99.90
28532;DHT22;15738;44.860;10.066;2023-02-04T08:07:09;8.60;99.90
28532;DHT22;15738;44.860;10.066;2023-02-04T08:09:54;8.80;99.90
28532;DHT22;15738;44.860;10.066;2023-02-04T08:12:40;9.00;99.90
28532;DHT22;15738;44.860;10.066;2023-02-04T08:15:25;8.90;99.90
28532;DHT22;15738;44.860;10.066;2023-02-04T08:18:11;9.00;99.90
28532;DHT22;15738;44.860;10.066;2023-02-04T08:20:57;9.20;99.90
28532;DHT22;15738;44.860;10.066;2023-02-04T08:23:46;9.30;99.90
28532;DHT22;15738;44.860;10.066;2023-02-04T08:26:32;9.40;99.90
28532;DHT22;15738;44.860;10.066;2023-02-04T08:29:18;9.30;99.90
28532;DHT22;15738;44.860;10.066;2023-02-04T08:32:04;9.20;99.90
28532;DHT22;15738;44.860;10.066;2023-02-04T08:34:50;9.40;99.90
28532;DHT22;15738;44.860;10.066;2023-02-04T08:37:36;9.60;99.90
28532;DHT22;15738;44.860;10.066;2023-02-04T08:40:22;9.80;99.90
28532;DHT22;15738;44.860;10.066;2023-02-04T08:43:07;9.90;99.90
28532;DHT22;15738;44.860;10.066;2023-02-04T08:45:53;10.20;99.90
28532;DHT22;15738;44.860;10.066;2023-02-04T08:48:38;10.30;99.90
28532;DHT22;15738;44.860;10.066;2023-02-04T08:51:24;10.40;99.90
28532;DHT22;15738;44.860;10.066;2023-02-04T08:54:10;10.60;99.90
28532;DHT22;15738;44.860;10.066;2023-02-04T08:56:56;10.70;99.90
28532;DHT22;15738;44.860;10.066;2023-02-04T08:59:41;10.80;99.90
28532;DHT22;15738;44.860;10.066;2023-02-04T09:02:27;10.80;99.90
28532;DHT22;15738;44.860;10.066;2023-02-04T09:05:13;11.00;99.90
28532;DHT22;15738;44.860;10.066;2023-02-04T09:07:59;11.10;99.90
28532;DHT22;15738;44.860;10.066;2023-02-04T09:10:44;11.20;99.90
28532;DHT22;15738;44.860;10.066;2023-02-04T09:13:30;11.40;99.90
28532;DHT22;15738;44.860;10.066;2023-02-04T09:16:16;11.50;99.90
28532;DHT22;15738;44.860;10.066;2023-02-04T09:19:03;11.60;99.90
28532;DHT22;15738;44.860;10.066;2023-02-04T09:21:48;11.80;99.90
28532;DHT22;15738;44.860;10.066;2023-02-04T09:24:34;11.90;99.90
28532;DHT22;15738;44.860;10.066;2023-02-04T09:27:20;12.00;99.90
28532;DHT22;15738;44.860;10.066;2023-02-04T09:30:06;12.10;99.90
28532;DHT22;15738;44.860;10.066;2023-02-04T09:32:51;12.20;99.90
28532;DHT22;15738;44.860;10.066;2023-02-04T09:35:37;12.30;99.90
28532;DHT22;15738;44.860;10.066;2023-02-04T09:38:23;12.30;99.90
28532;DHT22;15738;44.860;10.066;2023-02-04T09:41:11;12.30;99.90
28532;DHT22;15738;44.860;10.066;2023-02-04T09:43:57;12.40;99.90
28532;DHT22;15738;44.860;10.066;2023-02-04T09:46:46;12.50;99.90
28532;DHT22;15738;44.860;10.066;2023-02-04T09:49:32;12.60;99.90
28532;DHT22;15738;44.860;10.066;2023-02-04T09:52:18;12.60;99.90
28532;DHT22;15738;44.860;10.066;2023-02-04T09:55:07;12.80;99.90
28532;DHT22;15738;44.860;10.066;2023-02-04T09:57:52;12.80;99.90
28532;DHT22;15738;44.860;10.066;2023-02-04T10:00:38;12.80;99.90
28532;DHT22;15738;44.860;10.066;2023-02-04T10:03:24;13.00;99.90
28532;DHT22;15738;44.860;10.066;2023-02-04T10:06:11;13.10;99.90
28532;DHT22;15738;44.860;10.066;2023-02-04T10:08:57;13.20;99.90
28532;DHT22;15738;44.860;10.066;2023-02-04T10:11:44;13.30;99.90
28532;DHT22;15738;44.860;10.066;2023-02-04T10:14:31;13.40;99.90
28532;DHT22;15738;44.860;10.066;2023-02-04T10:17:19;13.50;99.90
28532;DHT22;15738;44.860;10.066;2023-02-04T10:20:16;13.50;99.90
28532;DHT22;15738;44.860;10.066;2023-02-04T10:23:01;13.60;99.90
28532;DHT22;15738;44.860;10.066;2023-02-04T10:25:47;13.80;99.90
28532;DHT22;15738;44.860;10.066;2023-02-04T10:28:33;13.80;99.90
28532;DHT22;15738;44.860;10.066;2023-02-04T10:31:36;13.80;99.90
28532;DHT22;15738;44.860;10.066;2023-02-04T10:34:34;13.90;99.90
28532;DHT22;15738;44.860;10.066;2023-02-04T10:37:22;13.90;99.90
28532;DHT22;15738;44.860;10.066;2023-02-04T10:40:27;13.90;99.90
28532;DHT22;15738;44.860;10.066;2023-02-04T10:43:17;14.00;99.90
28532;DHT22;15738;44.860;10.066;2023-02-04T10:46:03;14.00;99.90
28532;DHT22;15738;44.860;10.066;2023-02-04T10:48:48;14.00;99.90
28532;DHT22;15738;44.860;10.066;2023-02-04T10:51:34;14.00;99.90
28532;DHT22;15738;44.860;10.066;2023-02-04T10:54:21;14.00;99.90
28532;DHT22;15738;44.860;10.066;2023-02-04T10:57:17;14.00;99.90
28532;DHT22;15738;44.860;10.066;2023-02-04T11:00:13;13.90;99.90
28532;DHT22;15738;44.860;10.066;2023-02-04T11:05:46;14.00;99.90
28532;DHT22;15738;44.860;10.066;2023-02-04T11:08:32;14.10;99.90
28532;DHT22;15738;44.860;10.066;2023-02-04T11:11:21;14.10;99.90
28532;DHT22;15738;44.860;10.066;2023-02-04T11:14:17;14.10;99.90
28532;DHT22;15738;44.860;10.066;2023-02-04T11:17:06;14.20;99.90
28532;DHT22;15738;44.860;10.066;2023-02-04T11:19:52;14.30;99.90
28532;DHT22;15738;44.860;10.066;2023-02-04T11:22:42;14.30;99.90
28532;DHT22;15738;44.860;10.066;2023-02-04T11:28:24;14.30;99.90
28532;DHT22;15738;44.860;10.066;2023-02-04T11:31:24;14.30;99.90
28532;DHT22;15738;44.860;10.066;2023-02-04T11:39:57;14.40;99.90
28532;DHT22;15738;44.860;10.066;2023-02-04T11:42:42;14.30;99.90
28532;DHT22;15738;44.860;10.066;2023-02-04T11:45:30;14.30;99.90
28532;DHT22;15738;44.860;10.066;2023-02-04T11:48:17;14.30;99.90
28532;DHT22;15738;44.860;10.066;2023-02-04T11:51:11;14.30;99.90
28532;DHT22;15738;44.860;10.066;2023-02-04T11:53:57;14.30;99.90
28532;DHT22;15738;44.860;10.066;2023-02-04T11:56:43;14.30;99.90
28532;DHT22;15738;44.860;10.066;2023-02-04T11:59:28;14.30;99.90
28532;DHT22;15738;44.860;10.066;2023-02-04T12:02:15;14.40;99.90
28532;DHT22;15738;44.860;10.066;2023-02-04T12:05:08;14.40;99.90
28532;DHT22;15738;44.860;10.066;2023-02-04T12:07:54;14.50;99.90
28532;DHT22;15738;44.860;10.066;2023-02-04T12:10:46;14.50;99.90
28532;DHT22;15738;44.860;10.066;2023-02-04T12:13:33;14.60;99.90
28532;DHT22;15738;44.860;10.066;2023-02-04T12:16:19;14.60;99.90
28532;DHT22;15738;44.860;10.066;2023-02-04T12:19:05;14.60;99.90
28532;DHT22;15738;44.860;10.066;2023-02-04T12:21:50;14.70;99.90
28532;DHT22;15738;44.860;10.066;2023-02-04T12:24:36;14.70;99.90
28532;DHT22;15738;44.860;10.066;2023-02-04T12:27:22;14.80;99.90
28532;DHT22;15738;44.860;10.066;2023-02-04T12:30:08;14.90;99.90
28532;DHT22;15738;44.860;10.066;2023-02-04T12:32:54;14.90;99.90
28532;DHT22;15738;44.860;10.066;2023-02-04T12:35:39;15.00;99.90
28532;DHT22;15738;44.860;10.066;2023-02-04T12:38:25;15.00;99.90
28532;DHT22;15738;44.860;10.066;2023-02-04T12:41:12;15.00;99.90
28532;DHT22;15738;44.860;10.066;2023-02-04T12:43:58;15.00;99.90
28532;DHT22;15738;44.860;10.066;2023-02-04T12:46:45;15.00;99.90
28532;DHT22;15738;44.860;10.066;2023-02-04T12:49:31;15.00;99.90
28532;DHT22;15738;44.860;10.066;2023-02-04T12:52:16;15.00;99.90
28532;DHT22;15738;44.860;10.066;2023-02-04T12:55:02;15.00;99.90
28532;DHT22;15738;44.860;10.066;2023-02-04T12:57:49;15.10;99.90
28532;DHT22;15738;44.860;10.066;2023-02-04T13:00:34;15.10;99.90
28532;DHT22;15738;44.860;10.066;2023-02-04T13:03:20;15.20;99.90
28532;DHT22;15738;44.860;10.066;2023-02-04T13:06:08;15.20;99.90
28532;DHT22;15738;44.860;10.066;2023-02-04T13:08:53;15.30;99.90
28532;DHT22;15738;44.860;10.066;2023-02-04T13:11:39;15.30;99.90
28532;DHT22;15738;44.860;10.066;2023-02-04T13:14:25;15.30;99.90
28532;DHT22;15738;44.860;10.066;2023-02-04T13:17:13;15.30;99.90
28532;DHT22;15738;44.860;10.066;2023-02-04T13:19:59;15.40;99.90
28532;DHT22;15738;44.860;10.066;2023-02-04T13:22:44;15.40;99.90
28532;DHT22;15738;44.860;10.066;2023-02-04T13:25:30;15.40;99.90
28532;DHT22;15738;44.860;10.066;2023-02-04T13:28:16;15.30;99.90
28532;DHT22;15738;44.860;10.066;2023-02-04T13:31:02;15.30;99.90
28532;DHT22;15738;44.860;10.066;2023-02-04T13:33:54;15.30;99.90
28532;DHT22;15738;44.860;10.066;2023-02-04T13:36:40;15.30;99.90
28532;DHT22;15738;44.860;10.066;2023-02-04T13:39:27;15.40;99.90
28532;DHT22;15738;44.860;10.066;2023-02-04T13:42:14;15.40;99.90
28532;DHT22;15738;44.860;10.066;2023-02-04T13:44:59;15.40;99.90
28532;DHT22;15738;44.860;10.066;2023-02-04T13:47:45;15.40;99.90
28532;DHT22;15738;44.860;10.066;2023-02-04T13:50:32;15.40;99.90
28532;DHT22;15738;44.860;10.066;2023-02-04T13:53:18;15.30;99.90
28532;DHT22;15738;44.860;10.066;2023-02-04T13:56:04;15.30;99.90
28532;DHT22;15738;44.860;10.066;2023-02-04T13:58:49;15.30;99.90
28532;DHT22;15738;44.860;10.066;2023-02-04T14:01:35;15.30;99.90
28532;DHT22;15738;44.860;10.066;2023-02-04T14:04:21;15.30;99.90
28532;DHT22;15738;44.860;10.066;2023-02-04T14:07:07;15.30;99.90
28532;DHT22;15738;44.860;10.066;2023-02-04T14:09:52;15.30;99.90
28532;DHT22;15738;44.860;10.066;2023-02-04T14:12:38;15.30;99.90
28532;DHT22;15738;44.860;10.066;2023-02-04T14:15:26;15.30;99.90
28532;DHT22;15738;44.860;10.066;2023-02-04T14:18:12;15.30;99.90
28532;DHT22;15738;44.860;10.066;2023-02-04T14:20:57;15.20;99.90
28532;DHT22;15738;44.860;10.066;2023-02-04T14:23:43;15.20;99.90
28532;DHT22;15738;44.860;10.066;2023-02-04T14:26:28;15.20;99.90
28532;DHT22;15738;44.860;10.066;2023-02-04T14:29:14;15.20;99.90
28532;DHT22;15738;44.860;10.066;2023-02-04T14:32:00;15.10;99.90
28532;DHT22;15738;44.860;10.066;2023-02-04T14:34:46;15.10;99.90
28532;DHT22;15738;44.860;10.066;2023-02-04T14:37:31;15.10;99.90
28532;DHT22;15738;44.860;10.066;2023-02-04T14:40:18;15.10;99.90
28532;DHT22;15738;44.860;10.066;2023-02-04T14:43:03;15.10;99.90
28532;DHT22;15738;44.860;10.066;2023-02-04T14:45:49;15.10;99.90
28532;DHT22;15738;44.860;10.066;2023-02-04T14:48:34;15.00;99.90
28532;DHT22;15738;44.860;10.066;2023-02-04T14:51:20;15.00;99.90
28532;DHT22;15738;44.860;10.066;2023-02-04T14:54:06;14.90;99.90
28532;DHT22;15738;44.860;10.066;2023-02-04T14:56:52;14.90;99.90
28532;DHT22;15738;44.860;10.066;2023-02-04T14:59:37;14.80;99.90
28532;DHT22;15738;44.860;10.066;2023-02-04T15:02:26;14.10;99.90
28532;DHT22;15738;44.860;10.066;2023-02-04T15:05:14;14.80;99.90
28532;DHT22;15738;44.860;10.066;2023-02-04T15:07:59;14.70;99.90
28532;DHT22;15738;44.860;10.066;2023-02-04T15:10:44;14.70;99.90
28532;DHT22;15738;44.860;10.066;2023-02-04T15:13:30;14.70;99.90
28532;DHT22;15738;44.860;10.066;2023-02-04T15:16:16;14.60;99.90
28532;DHT22;15738;44.860;10.066;2023-02-04T15:19:02;14.60;99.90
28532;DHT22;15738;44.860;10.066;2023-02-04T15:21:48;14.50;99.90
28532;DHT22;15738;44.860;10.066;2023-02-04T15:24:33;14.50;99.90
28532;DHT22;15738;44.860;10.066;2023-02-04T15:27:19;14.50;99.90
28532;DHT22;15738;44.860;10.066;2023-02-04T15:30:04;14.50;99.90
28532;DHT22;15738;44.860;10.066;2023-02-04T15:32:50;14.50;99.90
28532;DHT22;15738;44.860;10.066;2023-02-04T15:35:36;14.50;99.90
28532;DHT22;15738;44.860;10.066;2023-02-04T15:38:22;14.60;99.90
28532;DHT22;15738;44.860;10.066;2023-02-04T15:41:07;14.60;99.90
28532;DHT22;15738;44.860;10.066;2023-02-04T15:43:53;14.60;99.90
28532;DHT22;15738;44.860;10.066;2023-02-04T15:46:39;14.50;99.90
28532;DHT22;15738;44.860;10.066;2023-02-04T15:49:24;14.50;99.90
28532;DHT22;15738;44.860;10.066;2023-02-04T15:52:10;14.60;99.90
28532;DHT22;15738;44.860;10.066;2023-02-04T15:55:07;14.60;99.90
28532;DHT22;15738;44.860;10.066;2023-02-04T15:57:53;14.60;99.90
28532;DHT22;15738;44.860;10.066;2023-02-04T16:00:38;14.50;99.90
28532;DHT22;15738;44.860;10.066;2023-02-04T16:03:24;14.50;99.90
28532;DHT22;15738;44.860;10.066;2023-02-04T16:06:10;14.30;99.90
28532;DHT22;15738;44.860;10.066;2023-02-04T16:08:55;14.30;99.90
28532;DHT22;15738;44.860;10.066;2023-02-04T16:11:41;14.20;99.90
28532;DHT22;15738;44.860;10.066;2023-02-04T16:14:26;14.10;99.90
28532;DHT22;15738;44.860;10.066;2023-02-04T16:17:12;14.00;99.90
28532;DHT22;15738;44.860;10.066;2023-02-04T16:19:58;13.90;99.90
28532;DHT22;15738;44.860;10.066;2023-02-04T16:22:44;13.80;99.90
28532;DHT22;15738;44.860;10.066;2023-02-04T16:25:29;13.70;99.90
28532;DHT22;15738;44.860;10.066;2023-02-04T16:28:15;13.60;99.90
28532;DHT22;15738;44.860;10.066;2023-02-04T16:31:01;13.50;99.90
28532;DHT22;15738;44.860;10.066;2023-02-04T16:33:47;13.40;99.90
28532;DHT22;15738;44.860;10.066;2023-02-04T16:36:33;13.40;99.90
28532;DHT22;15738;44.860;10.066;2023-02-04T16:39:18;13.20;99.90
28532;DHT22;15738;44.860;10.066;2023-02-04T16:42:04;13.20;99.90
28532;DHT22;15738;44.860;10.066;2023-02-04T16:44:52;13.10;99.90
28532;DHT22;15738;44.860;10.066;2023-02-04T16:47:38;13.00;99.90
28532;DHT22;15738;44.860;10.066;2023-02-04T16:50:23;12.90;99.90
28532;DHT22;15738;44.860;10.066;2023-02-04T16:53:09;13.00;99.90
28532;DHT22;15738;44.860;10.066;2023-02-04T16:55:59;13.10;99.90
28532;DHT22;15738;44.860;10.066;2023-02-04T16:58:45;13.10;99.90
28532;DHT22;15738;44.860;10.066;2023-02-04T17:01:31;13.00;99.90
28532;DHT22;15738;44.860;10.066;2023-02-04T17:04:17;12.90;99.90
28532;DHT22;15738;44.860;10.066;2023-02-04T17:07:03;12.80;99.90
28532;DHT22;15738;44.860;10.066;2023-02-04T17:09:49;12.60;99.90
28532;DHT22;15738;44.860;10.066;2023-02-04T17:12:35;12.50;99.90
28532;DHT22;15738;44.860;10.066;2023-02-04T17:15:21;12.30;99.90
28532;DHT22;15738;44.860;10.066;2023-02-04T17:18:06;12.20;99.90
28532;DHT22;15738;44.860;10.066;2023-02-04T17:20:52;12.00;99.90
28532;DHT22;15738;44.860;10.066;2023-02-04T17:23:38;11.90;99.90
28532;DHT22;15738;44.860;10.066;2023-02-04T17:26:24;11.80;99.90
28532;DHT22;15738;44.860;10.066;2023-02-04T17:29:11;11.70;99.90
28532;DHT22;15738;44.860;10.066;2023-02-04T17:31:56;11.50;99.90
28532;DHT22;15738;44.860;10.066;2023-02-04T17:34:42;11.20;99.90
28532;DHT22;15738;44.860;10.066;2023-02-04T17:37:27;10.90;99.90